Austin, Texas
Traffic Map
Current Weather Conditions
Austin, Texas
Clear
Clear
83°
Feels Like: 88°
Wind Chill: 83° Ceiling: Unl
Heat Index: 88° Visibility: 10mi
Dew Point: 71° Wind: 7mph
Humidity: 67% Direction: ° ()
Pressure: 29.98in Gusts: 0mph
Raw Report DataKATT 300251Z AUTO VRB06KT 10SM CLR 28/22 A2998 RMK AO2 SLP137 T02830217 53014
Traffic Incident Summary
Active as of:
Severity:
Category:
InformationThere was an issue retrieving the traffic information for this location. Please try a different location or try again shortly.
Advertisements
Track Severe Weather on mobile